Time;durP1;ratioP1;P1;durP2;ratioP2;P2;SDS_P1;SDS_P2;PMS_P1;PMS_P2;Temp;Humidity;BMP_temperature;BMP_pressure;BME280_temperature;BME280_humidity;BME280_pressure;Samples;Min_cycle;Max_cycle;Signal;HPM_P1;HPM_P2
2023/12/19 00:00:11;;;;;;;34.70;16.17;;;;;;;;;;4991093;28;20042;-86
2023/12/19 00:02:37;;;;;;;21.73;12.02;;;;;;;;;;5004332;28;20473;-87
2023/12/19 00:05:03;;;;;;;23.38;11.10;;;;;;;;;;4990260;28;20046;-87
2023/12/19 00:07:29;;;;;;;34.22;15.43;;;;;;;;;;4994556;28;20054;-86
2023/12/19 00:09:56;;;;;;;28.98;15.98;;;;;;;;;;4991683;28;20167;-84
2023/12/19 00:12:22;;;;;;;21.67;12.02;;;;;;;;;;5013646;28;20042;-84
2023/12/19 00:14:48;;;;;;;25.90;12.90;;;;;;;;;;4992648;28;20041;-84
2023/12/19 00:17:14;;;;;;;21.65;11.82;;;;;;;;;;4996490;28;20049;-84
2023/12/19 00:19:40;;;;;;;25.17;13.27;;;;;;;;;;4992611;28;20042;-84
2023/12/19 00:22:06;;;;;;;21.30;10.75;;;;;;;;;;5018419;28;20057;-84
2023/12/19 00:24:32;;;;;;;28.10;13.98;;;;;;;;;;5011807;28;20030;-84
2023/12/19 00:26:58;;;;;;;15.40;8.88;;;;;;;;;;5016718;28;20086;-83
2023/12/19 00:29:24;;;;;;;24.35;12.98;;;;;;;;;;4995810;28;20061;-84
2023/12/19 00:31:51;;;;;;;17.52;9.05;;;;;;;;;;5012429;28;20049;-84
2023/12/19 00:34:20;;;;;;;17.77;10.00;;;;;;;;;;5009522;28;20405;-84
2023/12/19 00:36:46;;;;;;;20.10;10.48;;;;;;;;;;5011884;28;20041;-84
2023/12/19 00:39:12;;;;;;;16.35;8.48;;;;;;;;;;4996230;28;20053;-84
2023/12/19 00:41:40;;;;;;;10.38;6.47;;;;;;;;;;5019269;28;20172;-84
2023/12/19 00:44:06;;;;;;;16.83;10.32;;;;;;;;;;5020832;28;20042;-84
2023/12/19 00:46:32;;;;;;;22.13;11.77;;;;;;;;;;4993632;28;20038;-84
2023/12/19 00:48:58;;;;;;;19.23;10.27;;;;;;;;;;5016028;28;20065;-83
2023/12/19 00:51:23;;;;;;;20.20;9.93;;;;;;;;;;5011385;28;20129;-84
2023/12/19 00:53:49;;;;;;;18.63;10.65;;;;;;;;;;4995733;28;20481;-83
2023/12/19 00:56:15;;;;;;;14.50;8.18;;;;;;;;;;5000554;28;20050;-84
2023/12/19 00:58:44;;;;;;;20.98;10.80;;;;;;;;;;5020581;28;20041;-85
2023/12/19 01:01:10;;;;;;;21.98;10.95;;;;;;;;;;5014277;28;20047;-84
2023/12/19 01:03:37;;;;;;;22.42;11.98;;;;;;;;;;5011904;28;20045;-84
2023/12/19 01:06:03;;;;;;;22.77;11.70;;;;;;;;;;5012124;28;20045;-84
2023/12/19 01:08:30;;;;;;;18.02;10.65;;;;;;;;;;5023704;28;20502;-84
2023/12/19 01:10:56;;;;;;;16.40;8.05;;;;;;;;;;4999099;28;20477;-84
2023/12/19 01:13:22;;;;;;;22.27;12.15;;;;;;;;;;5005307;28;20053;-83
2023/12/19 01:15:49;;;;;;;21.25;11.27;;;;;;;;;;4999075;28;20441;-84
2023/12/19 01:18:15;;;;;;;16.35;8.65;;;;;;;;;;4998085;28;20057;-84
2023/12/19 01:20:41;;;;;;;19.35;10.80;;;;;;;;;;5002165;28;20050;-84
2023/12/19 01:23:07;;;;;;;21.25;10.98;;;;;;;;;;5000306;28;20045;-84
2023/12/19 01:25:37;;;;;;;17.02;9.35;;;;;;;;;;5020332;28;20045;-85
2023/12/19 01:28:03;;;;;;;18.42;10.00;;;;;;;;;;5021770;28;20050;-84
2023/12/19 01:30:29;;;;;;;16.15;9.07;;;;;;;;;;5021327;28;20054;-84
2023/12/19 01:32:55;;;;;;;20.48;10.25;;;;;;;;;;5003730;28;20041;-84
2023/12/19 01:35:21;;;;;;;17.20;10.15;;;;;;;;;;4994282;28;20106;-84
2023/12/19 01:37:47;;;;;;;17.33;10.00;;;;;;;;;;4998681;28;20132;-84
2023/12/19 01:40:13;;;;;;;15.63;8.45;;;;;;;;;;5024346;28;20038;-84
2023/12/19 01:42:39;;;;;;;16.23;9.23;;;;;;;;;;4991603;28;20045;-83
2023/12/19 01:45:05;;;;;;;15.63;9.38;;;;;;;;;;5006441;28;20045;-84
2023/12/19 01:47:31;;;;;;;9.75;6.93;;;;;;;;;;5008902;28;20675;-83
2023/12/19 01:50:01;;;;;;;10.18;5.68;;;;;;;;;;5022394;28;20038;-84
2023/12/19 01:52:27;;;;;;;13.15;7.20;;;;;;;;;;5006807;28;20061;-84
2023/12/19 01:54:55;;;;;;;13.70;8.57;;;;;;;;;;5026030;28;20077;-83
2023/12/19 01:57:21;;;;;;;12.50;7.55;;;;;;;;;;5001569;28;20073;-83
2023/12/19 01:59:47;;;;;;;16.23;9.70;;;;;;;;;;5021243;28;20081;-83
2023/12/19 02:02:13;;;;;;;14.77;7.82;;;;;;;;;;5005693;28;20049;-83
2023/12/19 02:04:39;;;;;;;15.32;8.02;;;;;;;;;;5005358;28;20033;-83
2023/12/19 02:07:07;;;;;;;10.90;6.53;;;;;;;;;;5028421;28;20045;-83
2023/12/19 02:09:33;;;;;;;10.45;6.55;;;;;;;;;;4998580;28;22201;-83
2023/12/19 02:11:59;;;;;;;13.10;7.72;;;;;;;;;;4995770;28;20161;-83
2023/12/19 02:14:25;;;;;;;8.50;4.70;;;;;;;;;;5016238;28;20139;-84
2023/12/19 02:16:51;;;;;;;15.25;9.38;;;;;;;;;;4995338;28;20054;-83
2023/12/19 02:19:17;;;;;;;10.63;5.72;;;;;;;;;;4989689;28;20056;-83
2023/12/19 02:21:43;;;;;;;13.25;7.43;;;;;;;;;;5016610;28;20081;-83
2023/12/19 02:24:09;;;;;;;12.55;7.63;;;;;;;;;;5015294;28;20060;-83
2023/12/19 02:26:36;;;;;;;12.35;7.32;;;;;;;;;;5020068;28;20045;-83
2023/12/19 02:29:02;;;;;;;14.80;8.88;;;;;;;;;;5004070;28;20084;-83
2023/12/19 02:31:28;;;;;;;14.45;8.93;;;;;;;;;;4995952;28;20106;-83
2023/12/19 02:33:55;;;;;;;14.18;8.05;;;;;;;;;;5000531;28;20066;-83
2023/12/19 02:36:21;;;;;;;13.00;7.47;;;;;;;;;;5014913;28;20046;-83
2023/12/19 02:38:47;;;;;;;13.52;8.95;;;;;;;;;;4998928;28;20481;-83
2023/12/19 02:41:13;;;;;;;11.05;5.68;;;;;;;;;;5020804;28;20041;-83
2023/12/19 02:43:39;;;;;;;11.70;7.53;;;;;;;;;;5017713;28;20061;-83
2023/12/19 02:46:08;;;;;;;11.93;7.35;;;;;;;;;;5018899;28;20544;-83
2023/12/19 02:48:34;;;;;;;12.70;7.82;;;;;;;;;;4993108;28;20409;-85
2023/12/19 02:51:00;;;;;;;10.32;6.93;;;;;;;;;;4996622;28;20564;-86
2023/12/19 02:53:27;;;;;;;11.18;7.00;;;;;;;;;;5003297;28;20046;-84
2023/12/19 02:55:53;;;;;;;12.10;7.18;;;;;;;;;;4991943;28;20096;-87
2023/12/19 02:58:19;;;;;;;11.20;6.00;;;;;;;;;;4993191;28;20078;-86
2023/12/19 03:00:45;;;;;;;10.52;6.38;;;;;;;;;;4993942;28;20512;-86
2023/12/19 03:03:14;;;;;;;11.60;6.57;;;;;;;;;;5023116;28;20176;-85
2023/12/19 03:05:40;;;;;;;10.95;6.35;;;;;;;;;;5016064;28;20092;-85
2023/12/19 03:08:06;;;;;;;10.63;6.15;;;;;;;;;;4996286;28;20041;-86
2023/12/19 03:10:32;;;;;;;11.73;7.00;;;;;;;;;;4998716;28;20068;-85
2023/12/19 03:12:58;;;;;;;10.27;5.50;;;;;;;;;;4985319;28;20512;-85
2023/12/19 03:15:24;;;;;;;10.32;6.60;;;;;;;;;;4989073;28;20046;-86
2023/12/19 03:17:50;;;;;;;6.25;3.97;;;;;;;;;;4988823;28;20064;-84
2023/12/19 03:20:16;;;;;;;10.10;6.35;;;;;;;;;;4987606;28;20049;-85
2023/12/19 03:22:42;;;;;;;9.98;6.57;;;;;;;;;;4975378;28;20128;-85
2023/12/19 03:25:08;;;;;;;6.50;4.50;;;;;;;;;;4977112;28;20085;-85
2023/12/19 03:27:34;;;;;;;11.93;7.20;;;;;;;;;;4981722;28;20049;-85
2023/12/19 03:30:00;;;;;;;13.48;7.97;;;;;;;;;;4998145;28;20038;-85
2023/12/19 03:32:26;;;;;;;10.00;5.80;;;;;;;;;;4986490;28;20030;-85
2023/12/19 03:34:52;;;;;;;13.35;8.10;;;;;;;;;;4975324;28;20046;-84
2023/12/19 03:37:18;;;;;;;11.60;7.07;;;;;;;;;;4971024;28;20096;-85
2023/12/19 03:39:47;;;;;;;14.68;7.97;;;;;;;;;;4964376;28;20133;-85
2023/12/19 03:42:14;;;;;;;13.27;7.38;;;;;;;;;;4984300;28;20074;-84
2023/12/19 03:44:44;;;;;;;10.45;5.93;;;;;;;;;;4984037;28;20034;-85
2023/12/19 03:47:14;;;;;;;10.40;5.28;;;;;;;;;;4982234;28;20050;-85
2023/12/19 03:49:41;;;;;;;8.65;5.22;;;;;;;;;;4983908;28;20046;-82
2023/12/19 03:52:09;;;;;;;11.90;7.00;;;;;;;;;;4969979;28;20049;-83
2023/12/19 03:54:35;;;;;;;11.15;6.30;;;;;;;;;;4985597;28;20042;-82
2023/12/19 03:57:01;;;;;;;10.90;5.53;;;;;;;;;;4982904;28;20173;-83
2023/12/19 03:59:27;;;;;;;10.60;5.72;;;;;;;;;;5004760;28;20076;-82
2023/12/19 04:01:55;;;;;;;12.25;5.90;;;;;;;;;;5004922;28;20066;-82
2023/12/19 04:04:21;;;;;;;8.93;5.80;;;;;;;;;;4981374;28;20038;-82
2023/12/19 04:06:47;;;;;;;10.07;6.10;;;;;;;;;;4998270;28;20473;-82
2023/12/19 04:09:13;;;;;;;11.45;6.07;;;;;;;;;;4994269;28;20565;-82
2023/12/19 04:11:47;;;;;;;8.77;5.53;;;;;;;;;;4996759;28;20038;-82
2023/12/19 04:14:14;;;;;;;8.45;6.15;;;;;;;;;;4996105;28;20046;-82
2023/12/19 04:16:40;;;;;;;10.40;5.65;;;;;;;;;;4990734;28;20035;-82
2023/12/19 04:19:05;;;;;;;9.05;5.20;;;;;;;;;;4976760;28;20377;-81
2023/12/19 04:21:31;;;;;;;7.63;5.60;;;;;;;;;;4989425;28;20064;-82
2023/12/19 04:23:57;;;;;;;11.50;6.78;;;;;;;;;;5009999;28;20073;-82
2023/12/19 04:26:23;;;;;;;10.02;5.50;;;;;;;;;;5032030;28;20069;-81
2023/12/19 04:28:49;;;;;;;10.77;6.15;;;;;;;;;;5031569;28;20045;-82
2023/12/19 04:31:15;;;;;;;8.77;5.10;;;;;;;;;;5003273;28;20108;-82
2023/12/19 04:33:41;;;;;;;8.82;5.05;;;;;;;;;;5005584;28;20129;-82
2023/12/19 04:36:09;;;;;;;10.80;5.95;;;;;;;;;;5020237;28;20042;-82
2023/12/19 04:38:36;;;;;;;8.20;4.20;;;;;;;;;;5032007;28;20396;-82
2023/12/19 04:41:03;;;;;;;7.57;4.55;;;;;;;;;;5005256;28;20053;-82
2023/12/19 04:43:29;;;;;;;7.80;4.55;;;;;;;;;;5018193;28;20434;-81
2023/12/19 04:45:55;;;;;;;7.47;4.68;;;;;;;;;;5019636;28;20037;-82
2023/12/19 04:48:21;;;;;;;9.88;5.43;;;;;;;;;;5027480;28;20371;-82
2023/12/19 04:50:47;;;;;;;12.10;7.85;;;;;;;;;;5022828;28;20069;-81
2023/12/19 04:53:13;;;;;;;9.88;6.78;;;;;;;;;;5023236;28;20106;-81
2023/12/19 04:55:39;;;;;;;10.45;5.85;;;;;;;;;;5011076;28;20548;-81
2023/12/19 04:58:05;;;;;;;11.65;7.30;;;;;;;;;;5015288;28;20101;-81
2023/12/19 05:00:31;;;;;;;10.35;6.18;;;;;;;;;;5020363;28;20045;-81
2023/12/19 05:02:57;;;;;;;10.52;5.50;;;;;;;;;;5007237;28;20041;-81
2023/12/19 05:05:23;;;;;;;9.35;6.03;;;;;;;;;;5019769;28;20045;-81
2023/12/19 05:07:49;;;;;;;8.95;5.75;;;;;;;;;;5025347;28;20045;-80
2023/12/19 05:10:15;;;;;;;7.63;4.55;;;;;;;;;;5025755;28;20064;-81
2023/12/19 05:12:41;;;;;;;9.63;6.05;;;;;;;;;;4999689;28;20045;-81
2023/12/19 05:15:07;;;;;;;8.23;5.05;;;;;;;;;;4995026;28;20180;-80
2023/12/19 05:17:34;;;;;;;6.78;4.60;;;;;;;;;;4997856;28;20046;-81
2023/12/19 05:20:00;;;;;;;9.70;5.45;;;;;;;;;;4994551;28;20048;-82
2023/12/19 05:22:26;;;;;;;7.45;4.40;;;;;;;;;;4998464;28;20050;-80
2023/12/19 05:24:52;;;;;;;8.98;4.75;;;;;;;;;;5018210;28;20050;-80
2023/12/19 05:27:18;;;;;;;9.27;5.25;;;;;;;;;;5005381;28;20049;-80
2023/12/19 05:29:44;;;;;;;11.00;5.95;;;;;;;;;;5017893;28;20428;-80
2023/12/19 05:32:10;;;;;;;8.35;4.40;;;;;;;;;;5015820;28;20397;-80
2023/12/19 05:34:36;;;;;;;9.77;5.72;;;;;;;;;;5005849;28;20041;-80
2023/12/19 05:37:03;;;;;;;7.70;5.35;;;;;;;;;;5015301;28;20499;-80
2023/12/19 05:39:30;;;;;;;8.05;4.82;;;;;;;;;;4994723;28;20045;-80
2023/12/19 05:41:58;;;;;;;7.20;4.47;;;;;;;;;;5015819;28;20042;-81
2023/12/19 05:44:24;;;;;;;6.82;4.00;;;;;;;;;;4994449;28;20164;-81
2023/12/19 05:46:51;;;;;;;5.40;3.60;;;;;;;;;;5015172;28;20054;-80
2023/12/19 05:49:18;;;;;;;6.93;4.40;;;;;;;;;;5018282;28;20049;-80
2023/12/19 05:51:44;;;;;;;7.15;3.95;;;;;;;;;;5018222;28;20038;-80
2023/12/19 05:54:10;;;;;;;8.02;4.50;;;;;;;;;;5001621;28;20110;-80
2023/12/19 05:56:36;;;;;;;7.57;4.57;;;;;;;;;;5014715;28;20088;-81
2023/12/19 05:59:02;;;;;;;5.65;3.28;;;;;;;;;;5010319;28;20493;-80
2023/12/19 06:01:28;;;;;;;7.38;4.35;;;;;;;;;;5018618;28;20038;-80
2023/12/19 06:03:55;;;;;;;8.20;4.10;;;;;;;;;;4989321;28;20147;-80
2023/12/19 06:06:21;;;;;;;7.40;4.22;;;;;;;;;;5001230;28;20046;-80
2023/12/19 06:08:47;;;;;;;8.40;4.68;;;;;;;;;;5014826;28;20401;-80
2023/12/19 06:11:13;;;;;;;7.32;4.75;;;;;;;;;;5017114;28;20037;-80
2023/12/19 06:13:39;;;;;;;6.70;4.57;;;;;;;;;;4996432;28;20049;-80
2023/12/19 06:16:06;;;;;;;7.50;4.55;;;;;;;;;;5016901;28;20370;-79
2023/12/19 06:18:32;;;;;;;7.22;4.35;;;;;;;;;;5015360;28;20434;-80
2023/12/19 06:21:00;;;;;;;6.72;4.22;;;;;;;;;;5011209;28;20128;-79
2023/12/19 06:23:27;;;;;;;8.25;4.60;;;;;;;;;;4997330;28;20060;-79
2023/12/19 06:25:54;;;;;;;7.70;4.72;;;;;;;;;;5013585;28;20045;-80
2023/12/19 06:28:23;;;;;;;5.90;3.83;;;;;;;;;;4998989;28;20062;-80
2023/12/19 06:30:49;;;;;;;5.80;4.45;;;;;;;;;;4993696;28;20543;-80
2023/12/19 06:33:18;;;;;;;8.27;4.28;;;;;;;;;;5013846;28;20421;-81
2023/12/19 06:35:46;;;;;;;7.57;4.15;;;;;;;;;;5012002;28;20042;-81
2023/12/19 06:38:12;;;;;;;6.47;4.03;;;;;;;;;;5014859;28;20054;-81
2023/12/19 06:40:38;;;;;;;5.35;3.83;;;;;;;;;;5019013;28;20045;-81
2023/12/19 06:43:05;;;;;;;6.82;4.18;;;;;;;;;;4997471;28;20068;-81
2023/12/19 06:45:33;;;;;;;4.72;3.40;;;;;;;;;;5004613;28;20045;-82
2023/12/19 06:48:01;;;;;;;5.40;3.75;;;;;;;;;;4996709;28;20038;-80
2023/12/19 06:50:27;;;;;;;5.57;3.70;;;;;;;;;;4992879;28;20067;-81
2023/12/19 06:52:54;;;;;;;6.07;3.92;;;;;;;;;;5017308;28;20034;-81
2023/12/19 06:55:20;;;;;;;5.05;3.28;;;;;;;;;;4999395;28;20057;-82
2023/12/19 06:57:46;;;;;;;5.28;3.15;;;;;;;;;;5013332;28;20038;-82
2023/12/19 07:00:12;;;;;;;6.20;3.92;;;;;;;;;;5018136;28;20046;-82
2023/12/19 07:02:39;;;;;;;6.50;4.15;;;;;;;;;;4995818;28;20042;-82
2023/12/19 07:05:05;;;;;;;6.10;4.07;;;;;;;;;;5011608;28;20044;-81
2023/12/19 07:07:31;;;;;;;6.50;4.10;;;;;;;;;;5014358;28;20091;-81
2023/12/19 07:09:57;;;;;;;6.85;4.63;;;;;;;;;;5013220;28;20080;-80
2023/12/19 07:12:25;;;;;;;5.10;3.50;;;;;;;;;;5017456;28;20073;-80
2023/12/19 07:14:51;;;;;;;4.95;3.47;;;;;;;;;;5018909;28;20093;-82
2023/12/19 07:17:17;;;;;;;6.60;4.53;;;;;;;;;;5024923;28;20026;-80
2023/12/19 07:19:43;;;;;;;7.88;4.80;;;;;;;;;;5035743;28;20041;-81
2023/12/19 07:22:09;;;;;;;6.15;3.65;;;;;;;;;;5042222;23;20061;-81
2023/12/19 07:24:38;;;;;;;7.38;3.90;;;;;;;;;;5050556;28;20135;-80
2023/12/19 07:27:05;;;;;;;4.15;2.70;;;;;;;;;;5063713;28;20041;-81
2023/12/19 07:29:31;;;;;;;5.93;3.80;;;;;;;;;;5062292;28;20060;-82
2023/12/19 07:31:58;;;;;;;6.70;4.63;;;;;;;;;;5069138;28;20040;-82
2023/12/19 07:34:24;;;;;;;6.05;3.83;;;;;;;;;;5070631;28;20027;-80
2023/12/19 07:36:51;;;;;;;3.88;2.25;;;;;;;;;;5058692;28;20985;-80
2023/12/19 07:39:17;;;;;;;5.82;3.92;;;;;;;;;;5056229;28;20128;-82
2023/12/19 07:41:43;;;;;;;6.20;3.33;;;;;;;;;;5054261;28;20086;-81
2023/12/19 07:44:09;;;;;;;4.72;3.28;;;;;;;;;;5059484;28;20042;-80
2023/12/19 07:46:42;;;;;;;5.28;3.80;;;;;;;;;;5054732;28;20041;-81
2023/12/19 07:49:08;;;;;;;5.03;3.38;;;;;;;;;;5040287;28;20053;-81
2023/12/19 07:51:34;;;;;;;5.85;2.97;;;;;;;;;;5061338;28;20120;-81
2023/12/19 07:54:00;;;;;;;5.57;3.88;;;;;;;;;;5063550;28;20130;-81
2023/12/19 07:56:26;;;;;;;5.18;2.55;;;;;;;;;;5067645;28;20472;-81
2023/12/19 07:58:52;;;;;;;4.22;2.80;;;;;;;;;;5052811;28;20060;-81
2023/12/19 08:01:18;;;;;;;4.70;2.88;;;;;;;;;;5048415;28;20041;-81
2023/12/19 08:03:46;;;;;;;4.57;2.45;;;;;;;;;;5048017;28;20391;-81
2023/12/19 08:06:13;;;;;;;4.60;2.58;;;;;;;;;;5054045;28;20774;-81
2023/12/19 08:08:39;;;;;;;6.28;3.22;;;;;;;;;;5053676;28;20060;-81
2023/12/19 08:11:05;;;;;;;5.90;2.88;;;;;;;;;;5058465;28;20056;-81
2023/12/19 08:13:31;;;;;;;3.40;2.50;;;;;;;;;;5084977;28;20040;-81
2023/12/19 08:15:58;;;;;;;3.15;1.92;;;;;;;;;;5069908;28;20072;-81
2023/12/19 08:18:23;;;;;;;5.75;3.50;;;;;;;;;;5070986;28;20042;-81
2023/12/19 08:20:50;;;;;;;4.45;3.13;;;;;;;;;;5047983;28;20020;-81
2023/12/19 08:23:16;;;;;;;5.13;2.75;;;;;;;;;;5045850;28;20076;-81
2023/12/19 08:25:42;;;;;;;3.47;1.90;;;;;;;;;;5067276;28;20044;-80
2023/12/19 08:28:09;;;;;;;4.72;3.35;;;;;;;;;;5062687;28;20100;-81
2023/12/19 08:30:35;;;;;;;5.28;2.83;;;;;;;;;;5053653;28;20039;-81
2023/12/19 08:33:02;;;;;;;4.03;3.00;;;;;;;;;;5046039;28;20041;-80
2023/12/19 08:35:32;;;;;;;3.88;2.45;;;;;;;;;;5062160;28;20036;-80
2023/12/19 08:37:58;;;;;;;4.93;2.72;;;;;;;;;;5062628;28;20488;-80
2023/12/19 08:40:24;;;;;;;1.67;1.50;;;;;;;;;;5037757;28;20052;-80
2023/12/19 08:42:59;;;;;;;4.30;3.13;;;;;;;;;;5057471;28;20041;-80
2023/12/19 08:45:26;;;;;;;6.30;4.20;;;;;;;;;;5058824;28;20041;-80
2023/12/19 08:47:53;;;;;;;4.47;2.58;;;;;;;;;;5062518;28;20049;-81
2023/12/19 08:50:19;;;;;;;4.47;2.67;;;;;;;;;;5061341;28;20071;-81
2023/12/19 08:52:47;;;;;;;3.65;2.50;;;;;;;;;;5056993;28;20048;-80
2023/12/19 08:55:13;;;;;;;4.50;2.90;;;;;;;;;;5048474;28;20072;-81
2023/12/19 08:57:41;;;;;;;3.92;2.65;;;;;;;;;;5073956;28;20049;-81
2023/12/19 09:00:12;;;;;;;3.50;2.40;;;;;;;;;;5077451;28;20052;-81
2023/12/19 09:02:38;;;;;;;5.63;3.15;;;;;;;;;;5077190;28;20053;-81
2023/12/19 09:05:04;;;;;;;4.38;3.45;;;;;;;;;;5063191;28;20048;-81
2023/12/19 09:07:30;;;;;;;2.83;2.00;;;;;;;;;;5066431;28;20029;-81
2023/12/19 09:09:56;;;;;;;5.07;3.22;;;;;;;;;;5040891;28;20044;-81
2023/12/19 09:12:22;;;;;;;5.82;3.47;;;;;;;;;;5054817;28;20055;-81
2023/12/19 09:14:48;;;;;;;3.83;2.67;;;;;;;;;;5066392;28;20048;-80
2023/12/19 09:17:17;;;;;;;6.18;4.50;;;;;;;;;;5074043;28;20263;-80
2023/12/19 09:19:44;;;;;;;5.72;4.18;;;;;;;;;;5077850;28;20037;-80
2023/12/19 09:22:10;;;;;;;4.65;3.22;;;;;;;;;;5073200;28;20120;-80
2023/12/19 09:24:36;;;;;;;6.05;3.95;;;;;;;;;;5061917;28;20045;-80
2023/12/19 09:27:02;;;;;;;7.05;4.60;;;;;;;;;;5060511;28;20510;-81
2023/12/19 09:29:28;;;;;;;6.50;3.65;;;;;;;;;;5038559;28;20041;-80
2023/12/19 09:31:54;;;;;;;6.40;3.97;;;;;;;;;;5069788;28;22352;-80
2023/12/19 09:34:21;;;;;;;5.60;3.38;;;;;;;;;;5069805;28;20047;-81
2023/12/19 09:36:47;;;;;;;3.38;2.30;;;;;;;;;;5068046;28;20422;-81
2023/12/19 09:39:14;;;;;;;6.22;3.72;;;;;;;;;;5070905;28;20403;-81
2023/12/19 09:41:41;;;;;;;7.55;4.88;;;;;;;;;;5059745;28;20045;-81
2023/12/19 09:44:10;;;;;;;8.73;6.18;;;;;;;;;;5065723;28;20036;-81
2023/12/19 09:46:37;;;;;;;9.00;4.85;;;;;;;;;;5061694;28;20040;-81
2023/12/19 09:49:03;;;;;;;8.05;5.05;;;;;;;;;;5067442;28;20033;-81
2023/12/19 09:51:30;;;;;;;7.13;4.40;;;;;;;;;;5072708;28;20126;-81
2023/12/19 09:53:57;;;;;;;7.20;5.65;;;;;;;;;;5065921;28;20055;-81
2023/12/19 09:56:23;;;;;;;6.03;4.22;;;;;;;;;;5067561;28;20049;-81
2023/12/19 09:58:49;;;;;;;10.88;6.38;;;;;;;;;;5067021;28;20500;-82
2023/12/19 10:01:17;;;;;;;7.30;4.88;;;;;;;;;;5063717;28;20496;-81
2023/12/19 10:03:43;;;;;;;8.13;4.68;;;;;;;;;;5064251;28;20044;-81
2023/12/19 10:06:10;;;;;;;5.40;3.25;;;;;;;;;;5072863;28;20108;-82
2023/12/19 10:08:43;;;;;;;6.22;3.97;;;;;;;;;;5065406;28;20144;-81
2023/12/19 10:11:09;;;;;;;7.35;4.40;;;;;;;;;;5053534;28;20049;-80
2023/12/19 10:13:36;;;;;;;7.95;4.60;;;;;;;;;;5068704;28;20032;-79
2023/12/19 10:16:06;;;;;;;10.70;8.35;;;;;;;;;;5051198;28;20086;-80
2023/12/19 10:18:32;;;;;;;9.38;6.25;;;;;;;;;;5056380;28;20472;-80
2023/12/19 10:21:15;;;;;;;9.40;5.45;;;;;;;;;;5063725;28;20049;-80
2023/12/19 10:23:42;;;;;;;7.03;4.68;;;;;;;;;;5048015;28;20137;-80
2023/12/19 10:26:08;;;;;;;8.70;5.38;;;;;;;;;;5056990;28;20176;-81
2023/12/19 10:28:37;;;;;;;9.18;6.03;;;;;;;;;;5036086;28;20041;-81
2023/12/19 10:31:06;;;;;;;6.30;3.80;;;;;;;;;;5050984;28;20049;-81
2023/12/19 10:33:42;;;;;;;5.85;3.83;;;;;;;;;;5047955;28;20037;-81
2023/12/19 10:36:08;;;;;;;5.97;3.42;;;;;;;;;;5036629;28;20033;-81
2023/12/19 10:38:46;;;;;;;4.25;3.22;;;;;;;;;;5032922;28;20041;-80
2023/12/19 10:41:22;;;;;;;8.95;5.25;;;;;;;;;;5033176;28;20049;-81
2023/12/19 10:43:57;;;;;;;8.45;5.70;;;;;;;;;;5084910;27;20409;-82
2023/12/19 10:46:27;;;;;;;8.68;5.88;;;;;;;;;;5087977;28;20083;-81
2023/12/19 10:48:54;;;;;;;5.57;4.20;;;;;;;;;;5079758;28;20048;-83
2023/12/19 10:51:41;;;;;;;11.00;7.97;;;;;;;;;;5092581;28;20136;-83
2023/12/19 10:54:14;;;;;;;5.40;4.15;;;;;;;;;;5088789;28;20048;-83
2023/12/19 10:56:53;;;;;;;7.28;6.18;;;;;;;;;;5090133;28;20482;-83
2023/12/19 10:59:35;;;;;;;7.05;4.53;;;;;;;;;;5086577;28;20499;-84
2023/12/19 11:02:11;;;;;;;6.30;3.90;;;;;;;;;;5084440;28;20106;-83
2023/12/19 11:04:42;;;;;;;7.22;5.28;;;;;;;;;;5085373;28;20040;-83
2023/12/19 11:07:11;;;;;;;8.93;5.30;;;;;;;;;;5085571;28;20040;-83
2023/12/19 11:09:39;;;;;;;5.82;3.92;;;;;;;;;;5090457;28;20066;-83
2023/12/19 11:12:05;;;;;;;4.78;3.13;;;;;;;;;;5089731;28;20036;-82
2023/12/19 11:14:31;;;;;;;7.72;5.57;;;;;;;;;;5091166;28;20040;-82
2023/12/19 11:17:07;;;;;;;7.05;4.30;;;;;;;;;;5086005;28;20356;-81
2023/12/19 11:19:39;;;;;;;6.85;5.18;;;;;;;;;;5088174;28;20048;-83
2023/12/19 11:22:08;;;;;;;7.68;5.40;;;;;;;;;;5091225;28;20040;-82
2023/12/19 11:24:37;;;;;;;2.25;1.73;;;;;;;;;;5089484;28;20048;-83
2023/12/19 11:27:06;;;;;;;6.85;3.90;;;;;;;;;;5055713;28;20394;-82
2023/12/19 11:29:43;;;;;;;7.28;5.18;;;;;;;;;;5089612;28;20432;-82
2023/12/19 11:32:27;;;;;;;6.35;3.67;;;;;;;;;;5089246;28;20083;-83
2023/12/19 11:34:54;;;;;;;8.43;4.85;;;;;;;;;;5089833;28;20040;-82
2023/12/19 11:37:21;;;;;;;3.92;2.97;;;;;;;;;;5088329;28;20398;-81
2023/12/19 11:39:47;;;;;;;6.68;4.95;;;;;;;;;;5091243;28;20044;-83
2023/12/19 11:42:32;;;;;;;6.38;3.67;;;;;;;;;;5088545;28;20058;-83
2023/12/19 11:44:58;;;;;;;6.78;5.03;;;;;;;;;;5068737;28;20499;-86
2023/12/19 11:47:29;;;;;;;8.43;5.15;;;;;;;;;;5082229;28;20070;-85
2023/12/19 11:49:55;;;;;;;7.80;5.38;;;;;;;;;;5085064;28;20047;-85
2023/12/19 11:52:37;;;;;;;6.55;4.45;;;;;;;;;;5091811;28;20063;-87
2023/12/19 11:55:07;;;;;;;9.13;5.63;;;;;;;;;;5073284;28;20533;-88
2023/12/19 11:57:33;;;;;;;8.05;4.75;;;;;;;;;;5075375;28;20041;-86
2023/12/19 12:00:00;;;;;;;7.05;4.90;;;;;;;;;;5071561;28;20120;-84
2023/12/19 12:02:34;;;;;;;8.68;5.53;;;;;;;;;;5059903;28;20037;-81
2023/12/19 12:05:08;;;;;;;8.60;5.63;;;;;;;;;;5076673;28;20040;-84
2023/12/19 12:07:34;;;;;;;8.20;5.70;;;;;;;;;;5073585;28;20036;-83
2023/12/19 12:10:04;;;;;;;5.72;3.38;;;;;;;;;;5073904;28;20044;-83
2023/12/19 12:12:33;;;;;;;7.18;4.90;;;;;;;;;;5075005;28;20067;-83
2023/12/19 12:15:05;;;;;;;5.53;3.05;;;;;;;;;;5071495;28;20059;-82
2023/12/19 12:17:36;;;;;;;7.35;4.85;;;;;;;;;;5078808;28;20043;-80
2023/12/19 12:20:03;;;;;;;8.90;6.43;;;;;;;;;;5084454;28;20036;-81
2023/12/19 12:22:29;;;;;;;5.18;4.45;;;;;;;;;;5086050;28;20059;-81
2023/12/19 12:24:55;;;;;;;5.60;3.92;;;;;;;;;;5084434;28;20045;-80
2023/12/19 12:27:21;;;;;;;7.93;5.03;;;;;;;;;;5084747;28;20059;-80
2023/12/19 12:29:47;;;;;;;5.88;4.32;;;;;;;;;;5075517;28;20062;-80
2023/12/19 12:32:13;;;;;;;7.35;5.32;;;;;;;;;;5059414;28;20036;-80
2023/12/19 12:34:39;;;;;;;7.75;5.50;;;;;;;;;;5082660;28;20123;-83
2023/12/19 12:37:05;;;;;;;6.07;4.60;;;;;;;;;;5085089;28;20097;-82
2023/12/19 12:39:32;;;;;;;1.77;1.42;;;;;;;;;;5083161;28;20029;-83
2023/12/19 12:42:01;;;;;;;3.17;2.83;;;;;;;;;;5081493;28;20052;-80
2023/12/19 12:44:27;;;;;;;5.97;3.75;;;;;;;;;;5082078;28;20054;-79
2023/12/19 12:46:53;;;;;;;5.85;4.05;;;;;;;;;;5081263;28;20068;-79
2023/12/19 12:49:19;;;;;;;5.00;3.85;;;;;;;;;;5080305;28;20092;-79
2023/12/19 12:51:46;;;;;;;5.38;3.40;;;;;;;;;;5076005;28;20066;-81
2023/12/19 12:54:16;;;;;;;3.28;2.35;;;;;;;;;;5083071;28;20063;-81
2023/12/19 12:56:42;;;;;;;5.68;4.00;;;;;;;;;;5084171;28;20119;-81
2023/12/19 12:59:13;;;;;;;5.45;3.65;;;;;;;;;;5082822;28;20071;-82
2023/12/19 13:01:40;;;;;;;5.35;3.83;;;;;;;;;;5083653;28;20048;-81
2023/12/19 13:04:07;;;;;;;3.72;2.60;;;;;;;;;;5079855;28;20041;-80
2023/12/19 13:06:34;;;;;;;4.95;3.05;;;;;;;;;;5078442;28;20455;-80
2023/12/19 13:09:00;;;;;;;5.10;3.83;;;;;;;;;;5073176;28;20408;-80
2023/12/19 13:11:26;;;;;;;3.85;2.95;;;;;;;;;;5071561;28;20029;-80
2023/12/19 13:13:53;;;;;;;4.80;3.47;;;;;;;;;;5075654;28;20152;-79
2023/12/19 13:16:19;;;;;;;5.10;2.38;;;;;;;;;;5069588;28;20045;-78
2023/12/19 13:18:46;;;;;;;2.50;1.50;;;;;;;;;;5074038;28;20036;-79
2023/12/19 13:21:12;;;;;;;1.70;1.60;;;;;;;;;;5072976;28;20399;-79
2023/12/19 13:23:39;;;;;;;4.82;3.50;;;;;;;;;;5070815;28;20077;-79
2023/12/19 13:26:05;;;;;;;4.53;3.00;;;;;;;;;;5064675;28;20032;-79
2023/12/19 13:28:31;;;;;;;3.08;2.58;;;;;;;;;;5072690;28;20044;-79
2023/12/19 13:30:57;;;;;;;3.78;2.83;;;;;;;;;;5072341;28;20043;-79
2023/12/19 13:33:23;;;;;;;3.28;2.38;;;;;;;;;;5072407;28;20051;-80
2023/12/19 13:35:50;;;;;;;4.15;3.53;;;;;;;;;;5068573;28;20102;-79
2023/12/19 13:38:18;;;;;;;3.15;2.60;;;;;;;;;;5073601;28;20039;-79
2023/12/19 13:40:44;;;;;;;4.32;3.30;;;;;;;;;;5072361;28;20048;-79
2023/12/19 13:43:10;;;;;;;3.92;2.88;;;;;;;;;;5066998;28;20044;-79
2023/12/19 13:45:36;;;;;;;2.97;2.20;;;;;;;;;;5068173;28;20269;-79
2023/12/19 13:48:04;;;;;;;3.33;2.95;;;;;;;;;;5073711;28;20042;-80
2023/12/19 13:50:30;;;;;;;4.05;2.53;;;;;;;;;;5075491;28;20399;-81
2023/12/19 13:52:56;;;;;;;3.70;2.55;;;;;;;;;;5073771;28;20041;-79
2023/12/19 13:55:22;;;;;;;3.35;2.67;;;;;;;;;;5070330;28;20064;-79
2023/12/19 13:57:50;;;;;;;3.88;3.00;;;;;;;;;;5072184;28;20048;-79
2023/12/19 14:00:17;;;;;;;4.30;2.85;;;;;;;;;;5068971;28;20495;-79
2023/12/19 14:02:43;;;;;;;2.83;2.00;;;;;;;;;;5068927;28;20048;-79
2023/12/19 14:05:10;;;;;;;3.88;2.63;;;;;;;;;;5061713;28;20041;-78
2023/12/19 14:07:36;;;;;;;3.35;2.58;;;;;;;;;;5082958;28;20037;-83
2023/12/19 14:10:04;;;;;;;3.78;2.45;;;;;;;;;;5088425;28;20063;-82
2023/12/19 14:12:31;;;;;;;4.20;3.28;;;;;;;;;;5084635;28;20074;-83
2023/12/19 14:14:57;;;;;;;3.35;2.10;;;;;;;;;;5089211;28;20037;-84
2023/12/19 14:17:23;;;;;;;4.35;2.90;;;;;;;;;;5069180;28;20040;-84
2023/12/19 14:19:50;;;;;;;3.25;2.60;;;;;;;;;;5087644;28;20071;-84
2023/12/19 14:22:16;;;;;;;3.03;2.10;;;;;;;;;;5088880;28;20149;-83
2023/12/19 14:24:42;;;;;;;3.30;2.60;;;;;;;;;;5092894;28;20029;-85
2023/12/19 14:27:08;;;;;;;3.40;2.30;;;;;;;;;;5088719;28;20056;-84
2023/12/19 14:29:35;;;;;;;4.50;2.58;;;;;;;;;;5073380;28;20036;-84
2023/12/19 14:32:01;;;;;;;3.75;2.50;;;;;;;;;;5070362;28;20503;-84
2023/12/19 14:34:27;;;;;;;3.05;2.25;;;;;;;;;;5067173;28;20055;-84
2023/12/19 14:36:53;;;;;;;3.88;2.75;;;;;;;;;;5071027;28;20040;-84